QTR111 ORBI-HECA
Flight info
| Callsign | QTR111 |
|---|---|
| Flight time | N/A |
| Altitude | 30000 |
| Route | DCT LOVEK B411 ASH V14 OBNAK L550 NOVPA N697 MENLI DCT CA416 DCT |
| Aircraft | A332/H-SDE3GHIJ2J3J5M1RVWXY/LB2D1 |
Departure
| Time | 2026-05-07 13:59 |
|---|---|
| Airport | Baghdad International Airport / New Al Muthana Air Base (ORBI) |
Arrival
| Time | N/A |
|---|---|
| Airport | Cairo International Airport (HECA) |
| Time | Latitude | Longitude | Altitude | Speed | Heading |
|---|---|---|---|---|---|
| 2026-05-07 13:56 | 33.26521 | 44.22934 | 113 ft | 0 kts | 360° |
| 2026-05-07 13:57 | 33.26518 | 44.22934 | 113 ft | 0 kts | 180° |
| 2026-05-07 13:57 | 33.25214 | 44.25133 | 116 ft | 0 kts | 60° |
| 2026-05-07 13:58 | 33.25216 | 44.25136 | 116 ft | 2 kts | 60° |
| 2026-05-07 13:58 | 33.25231 | 44.25167 | 112 ft | 9 kts | 60° |
| 2026-05-07 13:58 | 33.25343 | 44.25206 | 113 ft | 28 kts | 331° |
| 2026-05-07 13:59 | 33.25662 | 44.24985 | 115 ft | 96 kts | 330° |
| 2026-05-07 13:59 | 33.26530 | 44.24390 | 202 ft | 189 kts | 331° |
| 2026-05-07 13:59 | 33.27759 | 44.23449 | 1196 ft | 223 kts | 327° |
| 2026-05-07 13:59 | 33.29073 | 44.22345 | 2521 ft | 238 kts | 328° |
| 2026-05-07 14:00 | 33.30463 | 44.21183 | 3546 ft | 245 kts | 323° |
| 2026-05-07 14:00 | 33.31678 | 44.19764 | 4804 ft | 244 kts | 306° |
| 2026-05-07 14:00 | 33.32351 | 44.17925 | 6000 ft | 245 kts | 278° |
| 2026-05-07 14:00 | 33.32193 | 44.15908 | 7219 ft | 245 kts | 256° |
| 2026-05-07 14:01 | 33.31699 | 44.13984 | 8424 ft | 245 kts | 247° |
| 2026-05-07 14:01 | 33.30784 | 44.12272 | 9724 ft | 246 kts | 229° |
| 2026-05-07 14:01 | 33.29367 | 44.11088 | 10854 ft | 253 kts | 210° |
| 2026-05-07 14:01 | 33.27678 | 44.10338 | 11772 ft | 268 kts | 201° |
| 2026-05-07 14:02 | 33.25764 | 44.09812 | 12226 ft | 296 kts | 196° |
| 2026-05-07 14:02 | 33.23688 | 44.09428 | 12904 ft | 312 kts | 193° |
| 2026-05-07 14:02 | 33.21508 | 44.09092 | 13850 ft | 319 kts | 192° |
| 2026-05-07 14:02 | 33.19282 | 44.08749 | 14723 ft | 324 kts | 193° |
| 2026-05-07 14:03 | 33.17031 | 44.08370 | 15614 ft | 329 kts | 193° |
| 2026-05-07 14:03 | 33.14757 | 44.07953 | 16521 ft | 333 kts | 194° |
| 2026-05-07 14:03 | 33.12450 | 44.07503 | 17427 ft | 337 kts | 194° |
| 2026-05-07 14:03 | 33.10124 | 44.07033 | 18347 ft | 341 kts | 194° |
| 2026-05-07 14:04 | 33.07772 | 44.06550 | 19124 ft | 344 kts | 194° |
| 2026-05-07 14:04 | 33.05398 | 44.06059 | 19895 ft | 348 kts | 195° |
| 2026-05-07 14:04 | 33.03020 | 44.05568 | 20663 ft | 352 kts | 195° |
| 2026-05-07 14:04 | 33.00596 | 44.05069 | 21445 ft | 355 kts | 195° |
| 2026-05-07 14:05 | 32.98152 | 44.04568 | 22212 ft | 358 kts | 195° |
| 2026-05-07 14:05 | 32.95686 | 44.04063 | 22953 ft | 361 kts | 195° |
| 2026-05-07 14:05 | 32.93195 | 44.03554 | 23681 ft | 365 kts | 195° |
| 2026-05-07 14:05 | 32.90674 | 44.03040 | 24263 ft | 368 kts | 195° |
| 2026-05-07 14:06 | 32.88136 | 44.02522 | 24831 ft | 372 kts | 195° |
| 2026-05-07 14:06 | 32.85573 | 44.02000 | 25423 ft | 375 kts | 195° |
| 2026-05-07 14:06 | 32.82990 | 44.01475 | 26015 ft | 377 kts | 195° |
| 2026-05-07 14:06 | 32.80429 | 44.00954 | 26584 ft | 380 kts | 195° |
| 2026-05-07 14:07 | 32.77814 | 44.00423 | 27147 ft | 383 kts | 195° |
| 2026-05-07 14:07 | 32.75182 | 43.99888 | 27709 ft | 385 kts | 195° |
| 2026-05-07 14:07 | 32.72530 | 43.99349 | 28238 ft | 388 kts | 195° |
| 2026-05-07 14:07 | 32.69856 | 43.98806 | 28783 ft | 391 kts | 195° |
| 2026-05-07 14:08 | 32.67162 | 43.98259 | 29330 ft | 394 kts | 195° |
| 2026-05-07 14:08 | 32.64456 | 43.97711 | 29849 ft | 397 kts | 195° |
| 2026-05-07 14:08 | 32.61732 | 43.97160 | 30070 ft | 391 kts | 195° |
| 2026-05-07 14:08 | 32.59111 | 43.96641 | 30080 ft | 374 kts | 195° |
| 2026-05-07 14:09 | 32.56600 | 43.96147 | 30075 ft | 357 kts | 196° |
| 2026-05-07 14:09 | 32.51813 | 43.95187 | 30072 ft | 345 kts | 196° |
| 2026-05-07 14:10 | 32.47872 | 43.94377 | 30072 ft | 346 kts | 196° |
| 2026-05-07 14:10 | 32.42357 | 43.93250 | 30072 ft | 346 kts | 196° |
| 2026-05-07 14:11 | 32.38375 | 43.92445 | 30072 ft | 346 kts | 196° |
| 2026-05-07 14:11 | 32.33659 | 43.91495 | 30069 ft | 346 kts | 196° |
| 2026-05-07 14:12 | 32.28903 | 43.90539 | 30074 ft | 345 kts | 196° |
| 2026-05-07 14:12 | 32.24185 | 43.89591 | 30072 ft | 345 kts | 196° |
| 2026-05-07 14:13 | 32.19443 | 43.88639 | 30071 ft | 346 kts | 196° |
| 2026-05-07 14:13 | 32.14703 | 43.87689 | 30075 ft | 344 kts | 196° |
| 2026-05-07 14:14 | 32.10030 | 43.86562 | 30074 ft | 339 kts | 203° |
| 2026-05-07 14:14 | 32.05888 | 43.84104 | 30075 ft | 330 kts | 220° |
| 2026-05-07 14:15 | 32.02792 | 43.80220 | 30076 ft | 328 kts | 237° |
| 2026-05-07 14:15 | 32.00662 | 43.75451 | 30077 ft | 330 kts | 243° |
| 2026-05-07 14:16 | 31.98736 | 43.70540 | 30081 ft | 330 kts | 244° |
| 2026-05-07 14:16 | 31.96819 | 43.65630 | 30080 ft | 330 kts | 243° |
| 2026-05-07 14:17 | 31.94872 | 43.60737 | 30085 ft | 330 kts | 243° |
| 2026-05-07 14:17 | 31.92919 | 43.55882 | 30083 ft | 330 kts | 243° |
| 2026-05-07 14:18 | 31.90948 | 43.51001 | 30086 ft | 330 kts | 243° |
| 2026-05-07 14:18 | 31.88980 | 43.46129 | 30083 ft | 330 kts | 243° |
| 2026-05-07 14:19 | 31.87007 | 43.41249 | 30091 ft | 330 kts | 243° |
| 2026-05-07 14:19 | 31.85028 | 43.36362 | 30082 ft | 331 kts | 243° |
| 2026-05-07 14:20 | 31.83049 | 43.31481 | 30068 ft | 331 kts | 243° |
| 2026-05-07 14:20 | 31.81080 | 43.26634 | 30085 ft | 330 kts | 243° |
| 2026-05-07 14:21 | 31.79099 | 43.21765 | 30095 ft | 330 kts | 243° |
| 2026-05-07 14:21 | 31.77109 | 43.16885 | 30089 ft | 331 kts | 243° |
| 2026-05-07 14:22 | 31.75120 | 43.12009 | 30088 ft | 331 kts | 243° |
| 2026-05-07 14:22 | 31.73126 | 43.07129 | 30070 ft | 330 kts | 243° |
| 2026-05-07 14:23 | 31.71146 | 43.02288 | 30101 ft | 330 kts | 243° |
| 2026-05-07 14:23 | 31.69142 | 42.97437 | 30091 ft | 330 kts | 242° |
| 2026-05-07 14:24 | 31.67120 | 42.92612 | 30088 ft | 330 kts | 242° |
| 2026-05-07 14:24 | 31.65085 | 42.87774 | 30089 ft | 330 kts | 242° |
| 2026-05-07 14:25 | 31.63051 | 42.82938 | 30074 ft | 330 kts | 242° |
| 2026-05-07 14:25 | 31.61019 | 42.78110 | 30088 ft | 329 kts | 242° |
| 2026-05-07 14:26 | 31.58989 | 42.73292 | 30089 ft | 329 kts | 242° |
| 2026-05-07 14:26 | 31.56972 | 42.68511 | 30092 ft | 329 kts | 242° |
| 2026-05-07 14:27 | 31.54937 | 42.63693 | 30092 ft | 329 kts | 242° |
| 2026-05-07 14:27 | 31.52898 | 42.58872 | 30070 ft | 330 kts | 242° |
| 2026-05-07 14:28 | 31.50859 | 42.54057 | 30089 ft | 330 kts | 242° |
| 2026-05-07 14:28 | 31.48817 | 42.49243 | 30091 ft | 330 kts | 242° |
| 2026-05-07 14:29 | 31.46773 | 42.44429 | 30091 ft | 330 kts | 242° |
| 2026-05-07 14:29 | 31.44742 | 42.39655 | 30103 ft | 330 kts | 242° |
| 2026-05-07 14:30 | 31.42691 | 42.34837 | 30092 ft | 330 kts | 242° |
| 2026-05-07 14:30 | 31.40636 | 42.30017 | 30091 ft | 330 kts | 242° |
| 2026-05-07 14:31 | 31.38581 | 42.25204 | 30091 ft | 330 kts | 242° |
| 2026-05-07 14:31 | 31.36542 | 42.20432 | 30090 ft | 330 kts | 242° |
| 2026-05-07 14:32 | 31.34483 | 42.15623 | 30090 ft | 331 kts | 242° |
| 2026-05-07 14:32 | 31.32418 | 42.10804 | 30091 ft | 331 kts | 242° |
| 2026-05-07 14:33 | 31.30353 | 42.05992 | 30091 ft | 331 kts | 242° |
| 2026-05-07 14:33 | 31.28287 | 42.01184 | 30094 ft | 331 kts | 241° |
| 2026-05-07 14:34 | 31.26220 | 41.96381 | 30096 ft | 331 kts | 241° |
| 2026-05-07 14:34 | 31.24156 | 41.91589 | 30092 ft | 332 kts | 241° |
| 2026-05-07 14:35 | 31.22077 | 41.86771 | 30091 ft | 332 kts | 241° |
| 2026-05-07 14:35 | 31.20004 | 41.81951 | 30092 ft | 332 kts | 242° |
| 2026-05-07 14:36 | 31.17944 | 41.77133 | 30104 ft | 331 kts | 242° |
| 2026-05-07 14:36 | 31.15882 | 41.72312 | 30091 ft | 332 kts | 242° |
| 2026-05-07 14:37 | 31.13830 | 41.67521 | 30091 ft | 332 kts | 242° |
| 2026-05-07 14:37 | 31.10731 | 41.60303 | 30092 ft | 332 kts | 241° |
| 2026-05-07 14:38 | 31.08661 | 41.55489 | 30104 ft | 331 kts | 241° |
| 2026-05-07 14:38 | 31.06591 | 41.50684 | 30091 ft | 332 kts | 241° |
| 2026-05-07 14:39 | 31.04514 | 41.45867 | 30093 ft | 332 kts | 241° |
| 2026-05-07 14:39 | 31.02450 | 41.41085 | 30092 ft | 332 kts | 241° |
| 2026-05-07 14:40 | 31.00372 | 41.36278 | 30089 ft | 332 kts | 241° |
| 2026-05-07 14:40 | 30.98292 | 41.31474 | 30081 ft | 332 kts | 241° |
| 2026-05-07 14:41 | 30.96212 | 41.26674 | 30092 ft | 332 kts | 241° |
| 2026-05-07 14:41 | 30.94131 | 41.21879 | 30094 ft | 331 kts | 241° |
| 2026-05-07 14:42 | 30.92049 | 41.17087 | 30102 ft | 331 kts | 241° |
| 2026-05-07 14:42 | 30.90160 | 41.12177 | 30113 ft | 333 kts | 245° |
| 2026-05-07 14:43 | 30.88498 | 41.07168 | 30105 ft | 334 kts | 246° |
| 2026-05-07 14:43 | 30.86864 | 41.02104 | 30100 ft | 334 kts | 246° |
| 2026-05-07 14:44 | 30.85228 | 40.97037 | 30100 ft | 334 kts | 246° |
| 2026-05-07 14:44 | 30.83586 | 40.91977 | 30102 ft | 334 kts | 246° |
| 2026-05-07 14:45 | 30.81946 | 40.86943 | 30100 ft | 335 kts | 246° |
| 2026-05-07 14:45 | 30.80288 | 40.81863 | 30101 ft | 336 kts | 246° |
| 2026-05-07 14:46 | 30.78630 | 40.76789 | 30099 ft | 336 kts | 246° |
| 2026-05-07 14:46 | 30.76972 | 40.71722 | 30106 ft | 335 kts | 246° |
| 2026-05-07 14:47 | 30.75313 | 40.66663 | 30104 ft | 334 kts | 246° |
| 2026-05-07 14:47 | 30.73654 | 40.61611 | 30111 ft | 334 kts | 246° |
| 2026-05-07 14:48 | 30.71993 | 40.56559 | 30107 ft | 334 kts | 246° |
| 2026-05-07 14:48 | 30.70329 | 40.51504 | 30116 ft | 334 kts | 246° |
| 2026-05-07 14:49 | 30.68674 | 40.46488 | 30130 ft | 335 kts | 246° |
| 2026-05-07 14:49 | 30.67004 | 40.41431 | 30113 ft | 335 kts | 246° |
| 2026-05-07 14:50 | 30.65330 | 40.36371 | 30116 ft | 335 kts | 246° |
| 2026-05-07 14:50 | 30.63656 | 40.31318 | 30116 ft | 335 kts | 246° |
| 2026-05-07 14:51 | 30.61991 | 40.26301 | 30121 ft | 335 kts | 246° |